No particular awareness of the weather is required.    There are no Weather-warnings


Meteo18 Weather Cam more information Meteo18 Weather Cam


Thunder radar more information blitzortung!


Rain radar more information rain snow radar


Visit our other weather sites:

Template documentation
and downloads

And another site



Weather Underground History page Text

Daily Summary for August 29, 2017 Units:  Both    English   Metric
« Previous Day
Next Day »
Daily Weekly Monthly Yearly Custom
  High: Low: Average:
Temperature: TemperatureC °F /  -17.8 °C 18.8 °F /  -7.3 °C 27.4 °F /  -2.6 °C
Dew Point: DewpointC °F /  -17.8 °C 13.4 °F /  -10.3 °C 16.3 °F /  -8.7 °C
Humidity: Humidity % 27 % 54 %
Wind Speed: WindSpeedKMH mph /  0 km/h - 2.7 mph /  4.3 km/h
Wind Gust: WindSpeedGustKMH mph /  0 km/h - -
Wind:- - South
Pressure: PressurehPa in /  0 hPa 1010.7 in /  34222.3 hPa -
Precipitation: 0.0 in /  0 mm    
Historical Graphs
 
 
Tabular Data for August 29, 2017
Time Temperature Dew Point Pressure Wind Wind Speed Wind Gust Humidity Rainfall Rate (Hourly)
TemperatureC °F /  -17.8 °C DewpointC °F /  -17.8 °C PressurehPa in /  0 hPa Calm     Humidity % HourlyPrecipMM in /  0 mm
00:02 24.5 °F /  -4.2 °C 16.5 °F /  -8.6 °C 1016.1 in /  34405.1 hPa North 8.0 mph /  12.9 km/h 9.7 mph /  15.6 km/h 61 % 0.0 in /  0 mm
00:12 24.5 °F /  -4.2 °C 16.5 °F /  -8.6 °C 1016.1 in /  34405.1 hPa NE 1.6 mph /  2.6 km/h 9.7 mph /  15.6 km/h 61 % 0.0 in /  0 mm
00:17 24.4 °F /  -4.2 °C 16.4 °F /  -8.7 °C 1016.1 in /  34405.1 hPa Calm   11.3 mph /  18.2 km/h 61 % 0.0 in /  0 mm
00:22 24.4 °F /  -4.2 °C 16.4 °F /  -8.7 °C 1016.1 in /  34405.1 hPa ENE 3.2 mph /  5.1 km/h 11.3 mph /  18.2 km/h 61 % 0.0 in /  0 mm
00:32 24.2 °F /  -4.3 °C 16.2 °F /  -8.8 °C 1016.1 in /  34405.1 hPa Calm   9.7 mph /  15.6 km/h 61 % 0.0 in /  0 mm
00:42 23.9 °F /  -4.5 °C 16.2 °F /  -8.8 °C 1016.1 in /  34405.1 hPa North 3.2 mph /  5.1 km/h 9.7 mph /  15.6 km/h 62 % 0.0 in /  0 mm
00:52 23.9 °F /  -4.5 °C 16.2 °F /  -8.8 °C 1016.1 in /  34405.1 hPa ENE 6.4 mph /  10.3 km/h 9.7 mph /  15.6 km/h 62 % 0.0 in /  0 mm
00:57 23.8 °F /  -4.6 °C 16.3 °F /  -8.7 °C 1015.8 in /  34395 hPa NNE 9.7 mph /  15.6 km/h 9.7 mph /  15.6 km/h 63 % 0.0 in /  0 mm
01:02 23.8 °F /  -4.6 °C 16.3 °F /  -8.7 °C 1015.8 in /  34395 hPa NE 9.7 mph /  15.6 km/h 9.7 mph /  15.6 km/h 63 % 0.0 in /  0 mm
01:12 23.7 °F /  -4.6 °C 16.2 °F /  -8.8 °C 1015.8 in /  34395 hPa NNW 3.2 mph /  5.1 km/h 11.3 mph /  18.2 km/h 63 % 0.0 in /  0 mm
01:17 23.7 °F /  -4.6 °C 16.5 °F /  -8.6 °C 1015.8 in /  34395 hPa NNE 3.2 mph /  5.1 km/h 9.7 mph /  15.6 km/h 64 % 0.0 in /  0 mm
01:22 23.7 °F /  -4.6 °C 16.5 °F /  -8.6 °C 1015.8 in /  34395 hPa Calm   9.7 mph /  15.6 km/h 64 % 0.0 in /  0 mm
01:27 23.6 °F /  -4.7 °C 16.4 °F /  -8.7 °C 1015.8 in /  34395 hPa WNW 1.6 mph /  2.6 km/h 9.7 mph /  15.6 km/h 64 % 0.0 in /  0 mm
01:32 23.3 °F /  -4.8 °C 16.3 °F /  -8.7 °C 1015.8 in /  34395 hPa NW 4.8 mph /  7.7 km/h 9.7 mph /  15.6 km/h 65 % 0.0 in /  0 mm
01:37 23.2 °F /  -4.9 °C 16.3 °F /  -8.7 °C 1015.8 in /  34395 hPa NNW 1.6 mph /  2.6 km/h 6.4 mph /  10.3 km/h 65 % 0.0 in /  0 mm
01:42 23.4 °F /  -4.8 °C 16.4 °F /  -8.7 °C 1015.8 in /  34395 hPa Calm   4.8 mph /  7.7 km/h 65 % 0.0 in /  0 mm
01:47 23.4 °F /  -4.8 °C 16.4 °F /  -8.7 °C 1015.8 in /  34395 hPa Calm   8.0 mph /  12.9 km/h 65 % 0.0 in /  0 mm
01:52 23.4 °F /  -4.8 °C 16.4 °F /  -8.7 °C 1015.8 in /  34395 hPa North 1.6 mph /  2.6 km/h 8.0 mph /  12.9 km/h 65 % 0.0 in /  0 mm
01:57 23.3 °F /  -4.8 °C 16.3 °F /  -8.7 °C 1015.8 in /  34395 hPa NNE 1.6 mph /  2.6 km/h 8.0 mph /  12.9 km/h 65 % 0.0 in /  0 mm
02:02 23.3 °F /  -4.8 °C 16.3 °F /  -8.7 °C 1015.5 in /  34384.8 hPa Calm   6.4 mph /  10.3 km/h 65 % 0.0 in /  0 mm
02:12 23.3 °F /  -4.8 °C 16.3 °F /  -8.7 °C 1015.5 in /  34384.8 hPa Calm   6.4 mph /  10.3 km/h 65 % 0.0 in /  0 mm
02:17 23.3 °F /  -4.8 °C 16.3 °F /  -8.7 °C 1015.8 in /  34395 hPa NNE 1.6 mph /  2.6 km/h 6.4 mph /  10.3 km/h 65 % 0.0 in /  0 mm
02:22 23.3 °F /  -4.8 °C 16.3 °F /  -8.7 °C 1015.5 in /  34384.8 hPa NNE 1.6 mph /  2.6 km/h 4.8 mph /  7.7 km/h 65 % 0.0 in /  0 mm
02:27 23.1 °F /  -4.9 °C 16.4 °F /  -8.7 °C 1015.5 in /  34384.8 hPa Calm   4.8 mph /  7.7 km/h 66 % 0.0 in /  0 mm
02:32 22.7 °F /  -5.2 °C 16.3 °F /  -8.7 °C 1015.5 in /  34384.8 hPa Calm   4.8 mph /  7.7 km/h 67 % 0.0 in /  0 mm
02:37 22.2 °F /  -5.4 °C 16.2 °F /  -8.8 °C 1015.5 in /  34384.8 hPa WNW 3.2 mph /  5.1 km/h 4.8 mph /  7.7 km/h 69 % 0.0 in /  0 mm
02:42 21.9 °F /  -5.6 °C 16.4 °F /  -8.7 °C 1015.5 in /  34384.8 hPa WNW 3.2 mph /  5.1 km/h 3.2 mph /  5.1 km/h 71 % 0.0 in /  0 mm
02:52 22.3 °F /  -5.4 °C 16.3 °F /  -8.7 °C 1015.5 in /  34384.8 hPa Calm   3.2 mph /  5.1 km/h 69 % 0.0 in /  0 mm
02:57 22.3 °F /  -5.4 °C 16.3 °F /  -8.7 °C 1015.5 in /  34384.8 hPa North 1.6 mph /  2.6 km/h 3.2 mph /  5.1 km/h 69 % 0.0 in /  0 mm
03:02 22.3 °F /  -5.4 °C 16.3 °F /  -8.7 °C 1015.5 in /  34384.8 hPa North 1.6 mph /  2.6 km/h 3.2 mph /  5.1 km/h 69 % 0.0 in /  0 mm
03:12 22.2 °F /  -5.4 °C 16.5 °F /  -8.6 °C 1015.1 in /  34371.3 hPa Calm   3.2 mph /  5.1 km/h 70 % 0.0 in /  0 mm
03:17 22.1 °F /  -5.5 °C 16.4 °F /  -8.7 °C 1015.1 in /  34371.3 hPa Calm   1.6 mph /  2.6 km/h 70 % 0.0 in /  0 mm
03:22 22.2 °F /  -5.4 °C 16.5 °F /  -8.6 °C 1015.5 in /  34384.8 hPa NNW 1.6 mph /  2.6 km/h 1.6 mph /  2.6 km/h 70 % 0.0 in /  0 mm
03:32 22.2 °F /  -5.4 °C 16.5 °F /  -8.6 °C 1015.1 in /  34371.3 hPa NNW 1.6 mph /  2.6 km/h 3.2 mph /  5.1 km/h 70 % 0.0 in /  0 mm
03:37 22.1 °F /  -5.5 °C 16.4 °F /  -8.7 °C 1015.1 in /  34371.3 hPa NNW 1.6 mph /  2.6 km/h 3.2 mph /  5.1 km/h 70 % 0.0 in /  0 mm
03:42 22.1 °F /  -5.5 °C 16.4 °F /  -8.7 °C 1015.1 in /  34371.3 hPa NNW 1.6 mph /  2.6 km/h 3.2 mph /  5.1 km/h 70 % 0.0 in /  0 mm
03:47 22.0 °F /  -5.6 °C 16.3 °F /  -8.7 °C 1015.1 in /  34371.3 hPa NNE 1.6 mph /  2.6 km/h 3.2 mph /  5.1 km/h 70 % 0.0 in /  0 mm
03:52 21.8 °F /  -5.7 °C 16.3 °F /  -8.7 °C 1015.1 in /  34371.3 hPa NNE 1.6 mph /  2.6 km/h 4.8 mph /  7.7 km/h 71 % 0.0 in /  0 mm
03:57 21.6 °F /  -5.8 °C 16.3 °F /  -8.7 °C 1015.1 in /  34371.3 hPa Calm   4.8 mph /  7.7 km/h 72 % 0.0 in /  0 mm
04:02 21.6 °F /  -5.8 °C 16.3 °F /  -8.7 °C 1014.8 in /  34361.1 hPa Calm   4.8 mph /  7.7 km/h 72 % 0.0 in /  0 mm
04:12 21.7 °F /  -5.7 °C 16.4 °F /  -8.7 °C 1014.8 in /  34361.1 hPa Calm   3.2 mph /  5.1 km/h 72 % 0.0 in /  0 mm
04:17 21.7 °F /  -5.7 °C 16.4 °F /  -8.7 °C 1014.8 in /  34361.1 hPa NNW 1.6 mph /  2.6 km/h 3.2 mph /  5.1 km/h 72 % 0.0 in /  0 mm
04:22 21.7 °F /  -5.7 °C 16.4 °F /  -8.7 °C 1014.8 in /  34361.1 hPa Calm   3.2 mph /  5.1 km/h 72 % 0.0 in /  0 mm
04:27 21.4 °F /  -5.9 °C 16.4 °F /  -8.7 °C 1014.8 in /  34361.1 hPa NW 3.2 mph /  5.1 km/h 3.2 mph /  5.1 km/h 73 % 0.0 in /  0 mm
04:32 21.0 °F /  -6.1 °C 16.4 °F /  -8.7 °C 1014.8 in /  34361.1 hPa NW 1.6 mph /  2.6 km/h 3.2 mph /  5.1 km/h 75 % 0.0 in /  0 mm
04:42 21.2 °F /  -6 °C 16.4 °F /  -8.7 °C 1014.8 in /  34361.1 hPa Calm   3.2 mph /  5.1 km/h 74 % 0.0 in /  0 mm
04:47 20.8 °F /  -6.2 °C 16.2 °F /  -8.8 °C 1014.8 in /  34361.1 hPa Calm   1.6 mph /  2.6 km/h 75 % 0.0 in /  0 mm
04:52 20.6 °F /  -6.3 °C 16.2 °F /  -8.8 °C 1014.8 in /  34361.1 hPa Calm   1.6 mph /  2.6 km/h 76 % 0.0 in /  0 mm
04:57 20.7 °F /  -6.3 °C 16.3 °F /  -8.7 °C 1014.8 in /  34361.1 hPa North 1.6 mph /  2.6 km/h 1.6 mph /  2.6 km/h 76 % 0.0 in /  0 mm
05:02 20.8 °F /  -6.2 °C 16.2 °F /  -8.8 °C 1014.8 in /  34361.1 hPa NW 1.6 mph /  2.6 km/h 3.2 mph /  5.1 km/h 75 % 0.0 in /  0 mm
05:07 20.9 °F /  -6.2 °C 16.1 °F /  -8.8 °C 1014.8 in /  34361.1 hPa NNW 3.2 mph /  5.1 km/h 3.2 mph /  5.1 km/h 74 % 0.0 in /  0 mm
05:22 20.8 °F /  -6.2 °C 16.2 °F /  -8.8 °C 1014.8 in /  34361.1 hPa North 1.6 mph /  2.6 km/h 3.2 mph /  5.1 km/h 75 % 0.0 in /  0 mm
05:42 20.3 °F /  -6.5 °C 16.1 °F /  -8.8 °C 1014.4 in /  34347.6 hPa North 1.6 mph /  2.6 km/h 3.2 mph /  5.1 km/h 77 % 0.0 in /  0 mm
05:52 20.3 °F /  -6.5 °C 15.9 °F /  -8.9 °C 1014.4 in /  34347.6 hPa NNW 1.6 mph /  2.6 km/h 3.2 mph /  5.1 km/h 76 % 0.0 in /  0 mm
05:57 20.3 °F /  -6.5 °C 15.9 °F /  -8.9 °C 1014.4 in /  34347.6 hPa Calm   3.2 mph /  5.1 km/h 76 % 0.0 in /  0 mm
06:02 20.2 °F /  -6.6 °C 16.0 °F /  -8.9 °C 1014.4 in /  34347.6 hPa Calm   3.2 mph /  5.1 km/h 77 % 0.0 in /  0 mm
06:07 20.1 °F /  -6.6 °C 15.9 °F /  -8.9 °C 1014.4 in /  34347.6 hPa Calm   3.2 mph /  5.1 km/h 77 % 0.0 in /  0 mm
06:12 20.0 °F /  -6.7 °C 15.8 °F /  -9 °C 1014.4 in /  34347.6 hPa Calm   1.6 mph /  2.6 km/h 77 % 0.0 in /  0 mm
06:17 19.9 °F /  -6.7 °C 15.9 °F /  -8.9 °C 1014.4 in /  34347.6 hPa NNW 1.6 mph /  2.6 km/h 1.6 mph /  2.6 km/h 78 % 0.0 in /  0 mm
06:22 19.8 °F /  -6.8 °C 15.9 °F /  -8.9 °C 1014.4 in /  34347.6 hPa Calm   1.6 mph /  2.6 km/h 78 % 0.0 in /  0 mm
06:32 19.8 °F /  -6.8 °C 15.9 °F /  -8.9 °C 1014.4 in /  34347.6 hPa Calm   1.6 mph /  2.6 km/h 78 % 0.0 in /  0 mm
06:37 19.7 °F /  -6.8 °C 15.8 °F /  -9 °C 1014.4 in /  34347.6 hPa Calm   1.6 mph /  2.6 km/h 78 % 0.0 in /  0 mm
06:42 19.6 °F /  -6.9 °C 15.9 °F /  -8.9 °C 1014.4 in /  34347.6 hPa Calm   1.6 mph /  2.6 km/h 79 % 0.0 in /  0 mm
06:47 19.4 °F /  -7 °C 15.9 °F /  -8.9 °C 1014.4 in /  34347.6 hPa North 1.6 mph /  2.6 km/h 1.6 mph /  2.6 km/h 80 % 0.0 in /  0 mm
06:57 18.9 °F /  -7.3 °C 15.8 °F /  -9 °C 1014.4 in /  34347.6 hPa NNE 1.6 mph /  2.6 km/h 3.2 mph /  5.1 km/h 82 % 0.0 in /  0 mm
07:02 18.8 °F /  -7.3 °C 15.7 °F /  -9.1 °C 1014.4 in /  34347.6 hPa Calm   3.2 mph /  5.1 km/h 82 % 0.0 in /  0 mm
07:07 18.9 °F /  -7.3 °C 15.8 °F /  -9 °C 1014.4 in /  34347.6 hPa NNW 1.6 mph /  2.6 km/h 3.2 mph /  5.1 km/h 82 % 0.0 in /  0 mm
07:12 19.0 °F /  -7.2 °C 15.9 °F /  -8.9 °C 1014.4 in /  34347.6 hPa Calm   3.2 mph /  5.1 km/h 82 % 0.0 in /  0 mm
07:17 18.9 °F /  -7.3 °C 15.8 °F /  -9 °C 1014.4 in /  34347.6 hPa Calm   3.2 mph /  5.1 km/h 82 % 0.0 in /  0 mm
07:22 18.9 °F /  -7.3 °C 15.8 °F /  -9 °C 1014.4 in /  34347.6 hPa Calm   3.2 mph /  5.1 km/h 82 % 0.0 in /  0 mm
07:32 19.1 °F /  -7.2 °C 15.8 °F /  -9 °C 1014.4 in /  34347.6 hPa Calm     81 % 0.0 in /  0 mm
07:37 19.0 °F /  -7.2 °C 15.7 °F /  -9.1 °C 1014.4 in /  34347.6 hPa Calm     81 % 0.0 in /  0 mm
07:42 19.1 °F /  -7.2 °C 15.8 °F /  -9 °C 1014.4 in /  34347.6 hPa Calm   3.2 mph /  5.1 km/h 81 % 0.0 in /  0 mm
07:47 19.1 °F /  -7.2 °C 15.8 °F /  -9 °C 1014.4 in /  34347.6 hPa North 1.6 mph /  2.6 km/h 3.2 mph /  5.1 km/h 81 % 0.0 in /  0 mm
07:52 19.2 °F /  -7.1 °C 15.9 °F /  -8.9 °C 1014.4 in /  34347.6 hPa Calm   3.2 mph /  5.1 km/h 81 % 0.0 in /  0 mm
07:57 19.3 °F /  -7.1 °C 16.0 °F /  -8.9 °C 1014.4 in /  34347.6 hPa Calm   3.2 mph /  5.1 km/h 81 % 0.0 in /  0 mm
08:02 19.4 °F /  -7 °C 15.9 °F /  -8.9 °C 1014.4 in /  34347.6 hPa Calm   3.2 mph /  5.1 km/h 80 % 0.0 in /  0 mm
08:12 19.7 °F /  -6.8 °C 16.2 °F /  -8.8 °C 1014.4 in /  34347.6 hPa Calm   3.2 mph /  5.1 km/h 80 % 0.0 in /  0 mm
08:17 20.0 °F /  -6.7 °C 16.2 °F /  -8.8 °C 1014.4 in /  34347.6 hPa Calm   3.2 mph /  5.1 km/h 79 % 0.0 in /  0 mm
08:22 20.2 °F /  -6.6 °C 16.4 °F /  -8.7 °C 1014.4 in /  34347.6 hPa Calm   1.6 mph /  2.6 km/h 79 % 0.0 in /  0 mm
08:32 20.8 °F /  -6.2 °C 16.6 °F /  -8.6 °C 1014.4 in /  34347.6 hPa Calm     77 % 0.0 in /  0 mm
08:37 21.0 °F /  -6.1 °C 16.6 °F /  -8.6 °C 1014.4 in /  34347.6 hPa Calm     76 % 0.0 in /  0 mm
08:42 21.3 °F /  -5.9 °C 16.9 °F /  -8.4 °C 1014.4 in /  34347.6 hPa Calm   3.2 mph /  5.1 km/h 76 % 0.0 in /  0 mm
08:52 21.6 °F /  -5.8 °C 16.8 °F /  -8.4 °C 1014.4 in /  34347.6 hPa NNE 4.8 mph /  7.7 km/h 4.8 mph /  7.7 km/h 74 % 0.0 in /  0 mm
08:57 21.7 °F /  -5.7 °C 16.9 °F /  -8.4 °C 1014.4 in /  34347.6 hPa NNE 1.6 mph /  2.6 km/h 3.2 mph /  5.1 km/h 74 % 0.0 in /  0 mm
09:02 21.9 °F /  -5.6 °C 17.1 °F /  -8.3 °C 1014.4 in /  34347.6 hPa ENE 3.2 mph /  5.1 km/h 4.8 mph /  7.7 km/h 74 % 0.0 in /  0 mm
09:12 22.5 °F /  -5.3 °C 17.4 °F /  -8.1 °C 1014.1 in /  34337.4 hPa Calm   4.8 mph /  7.7 km/h 73 % 0.0 in /  0 mm
09:17 22.8 °F /  -5.1 °C 17.5 °F /  -8.1 °C 1014.4 in /  34347.6 hPa North 3.2 mph /  5.1 km/h 4.8 mph /  7.7 km/h 72 % 0.0 in /  0 mm
09:22 23.2 °F /  -4.9 °C 17.4 °F /  -8.1 °C 1014.4 in /  34347.6 hPa North 4.8 mph /  7.7 km/h 4.8 mph /  7.7 km/h 70 % 0.0 in /  0 mm
09:27 23.3 °F /  -4.8 °C 17.1 °F /  -8.3 °C 1014.4 in /  34347.6 hPa Calm   4.8 mph /  7.7 km/h 68 % 0.0 in /  0 mm
09:32 23.6 °F /  -4.7 °C 17.3 °F /  -8.2 °C 1014.4 in /  34347.6 hPa Calm   6.4 mph /  10.3 km/h 68 % 0.0 in /  0 mm
09:42 24.6 °F /  -4.1 °C 17.8 °F /  -7.9 °C 1014.4 in /  34347.6 hPa Calm   4.8 mph /  7.7 km/h 66 % 0.0 in /  0 mm
09:47 25.2 °F /  -3.8 °C 17.4 °F /  -8.1 °C 1014.4 in /  34347.6 hPa NE 1.6 mph /  2.6 km/h 4.8 mph /  7.7 km/h 62 % 0.0 in /  0 mm
09:52 25.0 °F /  -3.9 °C 17.2 °F /  -8.2 °C 1014.4 in /  34347.6 hPa NNE 1.6 mph /  2.6 km/h 3.2 mph /  5.1 km/h 62 % 0.0 in /  0 mm
10:02 25.2 °F /  -3.8 °C 17.1 °F /  -8.3 °C 1014.4 in /  34347.6 hPa ENE 3.2 mph /  5.1 km/h 4.8 mph /  7.7 km/h 61 % 0.0 in /  0 mm
10:12 25.7 °F /  -3.5 °C 16.8 °F /  -8.4 °C 1014.4 in /  34347.6 hPa ENE 3.2 mph /  5.1 km/h 8.0 mph /  12.9 km/h 58 % 0.0 in /  0 mm
10:17 25.8 °F /  -3.4 °C 17.2 °F /  -8.2 °C 1014.4 in /  34347.6 hPa NE 1.6 mph /  2.6 km/h 8.0 mph /  12.9 km/h 59 % 0.0 in /  0 mm
10:22 26.1 °F /  -3.3 °C 16.9 °F /  -8.4 °C 1014.4 in /  34347.6 hPa East 1.6 mph /  2.6 km/h 6.4 mph /  10.3 km/h 57 % 0.0 in /  0 mm
10:32 26.8 °F /  -2.9 °C 16.7 °F /  -8.5 °C 1014.8 in /  34361.1 hPa ENE 1.6 mph /  2.6 km/h 6.4 mph /  10.3 km/h 54 % 0.0 in /  0 mm
10:42 27.3 °F /  -2.6 °C 16.9 °F /  -8.4 °C 1014.8 in /  34361.1 hPa ENE 3.2 mph /  5.1 km/h 4.8 mph /  7.7 km/h 53 % 0.0 in /  0 mm
11:02 27.7 °F /  -2.4 °C 16.9 °F /  -8.4 °C 1014.8 in /  34361.1 hPa ENE 3.2 mph /  5.1 km/h 4.8 mph /  7.7 km/h 52 % 0.0 in /  0 mm
11:07 27.8 °F /  -2.3 °C 17.3 °F /  -8.2 °C 1014.8 in /  34361.1 hPa East 1.6 mph /  2.6 km/h 4.8 mph /  7.7 km/h 53 % 0.0 in /  0 mm
11:12 28.2 °F /  -2.1 °C 17.7 °F /  -7.9 °C 1014.4 in /  34347.6 hPa Calm   6.4 mph /  10.3 km/h 53 % 0.0 in /  0 mm
11:17 28.8 °F /  -1.8 °C 17.7 °F /  -7.9 °C 1014.8 in /  34361.1 hPa Calm   6.4 mph /  10.3 km/h 51 % 0.0 in /  0 mm
11:22 29.3 °F /  -1.5 °C 17.5 °F /  -8.1 °C 1014.8 in /  34361.1 hPa East 3.2 mph /  5.1 km/h 4.8 mph /  7.7 km/h 49 % 0.0 in /  0 mm
11:32 29.7 °F /  -1.3 °C 17.2 °F /  -8.2 °C 1014.8 in /  34361.1 hPa West 3.2 mph /  5.1 km/h 6.4 mph /  10.3 km/h 47 % 0.0 in /  0 mm
11:42 29.9 °F /  -1.2 °C 17.4 °F /  -8.1 °C 1014.8 in /  34361.1 hPa ESE 1.6 mph /  2.6 km/h 8.0 mph /  12.9 km/h 47 % 0.0 in /  0 mm
11:47 29.9 °F /  -1.2 °C 17.4 °F /  -8.1 °C 1014.8 in /  34361.1 hPa Calm   8.0 mph /  12.9 km/h 47 % 0.0 in /  0 mm
11:52 30.1 °F /  -1.1 °C 17.5 °F /  -8.1 °C 1014.8 in /  34361.1 hPa Calm   6.4 mph /  10.3 km/h 47 % 0.0 in /  0 mm
12:02 30.4 °F /  -0.9 °C 17.1 °F /  -8.3 °C 1014.4 in /  34347.6 hPa WSW 4.8 mph /  7.7 km/h 8.0 mph /  12.9 km/h 45 % 0.0 in /  0 mm
12:12 30.7 °F /  -0.7 °C 17.4 °F /  -8.1 °C 1014.4 in /  34347.6 hPa SSW 3.2 mph /  5.1 km/h 9.7 mph /  15.6 km/h 45 % 0.0 in /  0 mm
12:17 30.9 °F /  -0.6 °C 17.6 °F /  -8 °C 1014.4 in /  34347.6 hPa SSE 8.0 mph /  12.9 km/h 9.7 mph /  15.6 km/h 45 % 0.0 in /  0 mm
12:22 31.1 °F /  -0.5 °C 17.4 °F /  -8.1 °C 1014.4 in /  34347.6 hPa South 1.6 mph /  2.6 km/h 11.3 mph /  18.2 km/h 44 % 0.0 in /  0 mm
12:32 31.6 °F /  -0.2 °C 16.7 °F /  -8.5 °C 1014.1 in /  34337.4 hPa ESE 3.2 mph /  5.1 km/h 11.3 mph /  18.2 km/h 41 % 0.0 in /  0 mm
12:37 31.8 °F /  -0.1 °C 16.5 °F /  -8.6 °C 1014.1 in /  34337.4 hPa SSE 3.2 mph /  5.1 km/h 9.7 mph /  15.6 km/h 40 % 0.0 in /  0 mm
12:42 31.9 °F /  -0.1 °C 17.0 °F /  -8.3 °C 1014.1 in /  34337.4 hPa ENE 4.8 mph /  7.7 km/h 9.7 mph /  15.6 km/h 41 % 0.0 in /  0 mm
12:47 31.6 °F /  -0.2 °C 16.0 °F /  -8.9 °C 1014.1 in /  34337.4 hPa East 4.8 mph /  7.7 km/h 9.7 mph /  15.6 km/h 39 % 0.0 in /  0 mm
12:52 31.8 °F /  -0.1 °C 16.5 °F /  -8.6 °C 1014.1 in /  34337.4 hPa SE 4.8 mph /  7.7 km/h 11.3 mph /  18.2 km/h 40 % 0.0 in /  0 mm
13:02 32.1 °F /  0.1 °C 16.4 °F /  -8.7 °C 1014.1 in /  34337.4 hPa Calm   11.3 mph /  18.2 km/h 39 % 0.0 in /  0 mm
13:07 32.2 °F /  0.1 °C 16.5 °F /  -8.6 °C 1013.8 in /  34327.3 hPa ESE 1.6 mph /  2.6 km/h 11.3 mph /  18.2 km/h 39 % 0.0 in /  0 mm
13:12 32.3 °F /  0.2 °C 15.8 °F /  -9 °C 1013.8 in /  34327.3 hPa ENE 4.8 mph /  7.7 km/h 9.7 mph /  15.6 km/h 37 % 0.0 in /  0 mm
13:17 32.2 °F /  0.1 °C 16.1 °F /  -8.8 °C 1013.8 in /  34327.3 hPa ESE 8.0 mph /  12.9 km/h 9.7 mph /  15.6 km/h 38 % 0.0 in /  0 mm
13:22 32.2 °F /  0.1 °C 16.5 °F /  -8.6 °C 1013.4 in /  34313.7 hPa SE 3.2 mph /  5.1 km/h 11.3 mph /  18.2 km/h 39 % 0.0 in /  0 mm
13:32 32.6 °F /  0.3 °C 17.2 °F /  -8.2 °C 1013.4 in /  34313.7 hPa Calm   11.3 mph /  18.2 km/h 40 % 0.0 in /  0 mm
13:37 32.9 °F /  0.5 °C 16.3 °F /  -8.7 °C 1013.4 in /  34313.7 hPa ENE 4.8 mph /  7.7 km/h 11.3 mph /  18.2 km/h 37 % 0.0 in /  0 mm
13:42 32.8 °F /  0.4 °C 16.2 °F /  -8.8 °C 1013.4 in /  34313.7 hPa ENE 4.8 mph /  7.7 km/h 11.3 mph /  18.2 km/h 37 % 0.0 in /  0 mm
13:52 33.0 °F /  0.6 °C 16.4 °F /  -8.7 °C 1013.4 in /  34313.7 hPa ESE 1.6 mph /  2.6 km/h 16.1 mph /  25.9 km/h 37 % 0.0 in /  0 mm
14:02 32.9 °F /  0.5 °C 16.7 °F /  -8.5 °C 1013.4 in /  34313.7 hPa East 4.8 mph /  7.7 km/h 17.7 mph /  28.5 km/h 38 % 0.0 in /  0 mm
14:12 33.2 °F /  0.7 °C 16.5 °F /  -8.6 °C 1013.1 in /  34303.6 hPa East 4.8 mph /  7.7 km/h 17.7 mph /  28.5 km/h 37 % 0.0 in /  0 mm
14:17 33.3 °F /  0.7 °C 16.6 °F /  -8.6 °C 1013.1 in /  34303.6 hPa SSE 3.2 mph /  5.1 km/h 17.7 mph /  28.5 km/h 37 % 0.0 in /  0 mm
14:27 33.6 °F /  0.9 °C 16.9 °F /  -8.4 °C 1013.1 in /  34303.6 hPa ENE 4.8 mph /  7.7 km/h 9.7 mph /  15.6 km/h 37 % 0.0 in /  0 mm
14:32 33.4 °F /  0.8 °C 16.3 °F /  -8.7 °C 1013.1 in /  34303.6 hPa SE 1.6 mph /  2.6 km/h 14.5 mph /  23.3 km/h 36 % 0.0 in /  0 mm
14:42 33.4 °F /  0.8 °C 16.3 °F /  -8.7 °C 1013.1 in /  34303.6 hPa SE 1.6 mph /  2.6 km/h 16.1 mph /  25.9 km/h 36 % 0.0 in /  0 mm
14:52 34.1 °F /  1.2 °C 15.1 °F /  -9.4 °C 1012.8 in /  34293.4 hPa SW 3.2 mph /  5.1 km/h 16.1 mph /  25.9 km/h 32 % 0.0 in /  0 mm
14:57 34.4 °F /  1.3 °C 15.3 °F /  -9.3 °C 1012.8 in /  34293.4 hPa SW 3.2 mph /  5.1 km/h 16.1 mph /  25.9 km/h 32 % 0.0 in /  0 mm
15:02 34.3 °F /  1.3 °C 14.7 °F /  -9.6 °C 1012.8 in /  34293.4 hPa Calm   11.3 mph /  18.2 km/h 31 % 0.0 in /  0 mm
15:07 34.5 °F /  1.4 °C 14.4 °F /  -9.8 °C 1012.8 in /  34293.4 hPa SSE 3.2 mph /  5.1 km/h 11.3 mph /  18.2 km/h 30 % 0.0 in /  0 mm
15:12 34.7 °F /  1.5 °C 15.6 °F /  -9.1 °C 1012.8 in /  34293.4 hPa ENE 6.4 mph /  10.3 km/h 11.3 mph /  18.2 km/h 32 % 0.0 in /  0 mm
15:17 34.5 °F /  1.4 °C 13.9 °F /  -10.1 °C 1012.8 in /  34293.4 hPa SSE 6.4 mph /  10.3 km/h 11.3 mph /  18.2 km/h 29 % 0.0 in /  0 mm
15:22 34.4 °F /  1.3 °C 14.8 °F /  -9.6 °C 1012.8 in /  34293.4 hPa ESE 3.2 mph /  5.1 km/h 12.9 mph /  20.8 km/h 31 % 0.0 in /  0 mm
15:32 34.5 °F /  1.4 °C 13.9 °F /  -10.1 °C 1012.4 in /  34279.9 hPa SW 4.8 mph /  7.7 km/h 12.9 mph /  20.8 km/h 29 % 0.0 in /  0 mm
15:42 34.5 °F /  1.4 °C 14.4 °F /  -9.8 °C 1012.4 in /  34279.9 hPa ESE 4.8 mph /  7.7 km/h 11.3 mph /  18.2 km/h 30 % 0.0 in /  0 mm
15:47 34.5 °F /  1.4 °C 14.4 °F /  -9.8 °C 1012.4 in /  34279.9 hPa SSW 1.6 mph /  2.6 km/h 11.3 mph /  18.2 km/h 30 % 0.0 in /  0 mm
15:52 34.6 °F /  1.4 °C 14.0 °F /  -10 °C 1012.1 in /  34269.7 hPa SE 8.0 mph /  12.9 km/h 11.3 mph /  18.2 km/h 29 % 0.0 in /  0 mm
15:57 34.9 °F /  1.6 °C 14.7 °F /  -9.6 °C 1012.1 in /  34269.7 hPa SSW 1.6 mph /  2.6 km/h 12.9 mph /  20.8 km/h 30 % 0.0 in /  0 mm
16:02 34.6 °F /  1.4 °C 14.0 °F /  -10 °C 1012.1 in /  34269.7 hPa South 1.6 mph /  2.6 km/h 12.9 mph /  20.8 km/h 29 % 0.0 in /  0 mm
16:07 34.7 °F /  1.5 °C 14.1 °F /  -9.9 °C 1012.1 in /  34269.7 hPa SE 6.4 mph /  10.3 km/h 12.9 mph /  20.8 km/h 29 % 0.0 in /  0 mm
16:12 34.7 °F /  1.5 °C 13.5 °F /  -10.3 °C 1012.1 in /  34269.7 hPa ENE 1.6 mph /  2.6 km/h 12.9 mph /  20.8 km/h 28 % 0.0 in /  0 mm
16:17 34.6 °F /  1.4 °C 13.4 °F /  -10.3 °C 1012.1 in /  34269.7 hPa West 1.6 mph /  2.6 km/h 11.3 mph /  18.2 km/h 28 % 0.0 in /  0 mm
16:22 34.8 °F /  1.6 °C 14.1 °F /  -9.9 °C 1012.1 in /  34269.7 hPa ESE 4.8 mph /  7.7 km/h 11.3 mph /  18.2 km/h 29 % 0.0 in /  0 mm
16:27 34.9 °F /  1.6 °C 13.7 °F /  -10.2 °C 1011.7 in /  34256.2 hPa Calm   11.3 mph /  18.2 km/h 28 % 0.0 in /  0 mm
16:32 35.3 °F /  1.8 °C 14.0 °F /  -10 °C 1012.1 in /  34269.7 hPa Calm   11.3 mph /  18.2 km/h 28 % 0.0 in /  0 mm
16:37 35.3 °F /  1.8 °C 14.0 °F /  -10 °C 1011.7 in /  34256.2 hPa East 1.6 mph /  2.6 km/h 11.3 mph /  18.2 km/h 28 % 0.0 in /  0 mm
16:42 35.4 °F /  1.9 °C 13.5 °F /  -10.3 °C 1011.7 in /  34256.2 hPa NNE 4.8 mph /  7.7 km/h 11.3 mph /  18.2 km/h 27 % 0.0 in /  0 mm
16:47 35.4 °F /  1.9 °C 14.1 °F /  -9.9 °C 1011.7 in /  34256.2 hPa ESE 6.4 mph /  10.3 km/h 11.3 mph /  18.2 km/h 28 % 0.0 in /  0 mm
16:52 35.2 °F /  1.8 °C 14.5 °F /  -9.7 °C 1011.7 in /  34256.2 hPa East 1.6 mph /  2.6 km/h 11.3 mph /  18.2 km/h 29 % 0.0 in /  0 mm
16:57 35.2 °F /  1.8 °C 13.9 °F /  -10.1 °C 1011.7 in /  34256.2 hPa East 3.2 mph /  5.1 km/h 11.3 mph /  18.2 km/h 28 % 0.0 in /  0 mm
17:02 34.9 °F /  1.6 °C 14.2 °F /  -9.9 °C 1011.7 in /  34256.2 hPa ESE 1.6 mph /  2.6 km/h 11.3 mph /  18.2 km/h 29 % 0.0 in /  0 mm
17:12 35.2 °F /  1.8 °C 13.9 °F /  -10.1 °C 1011.4 in /  34246 hPa South 1.6 mph /  2.6 km/h 11.3 mph /  18.2 km/h 28 % 0.0 in /  0 mm
17:17 35.2 °F /  1.8 °C 14.5 °F /  -9.7 °C 1011.4 in /  34246 hPa Calm   11.3 mph /  18.2 km/h 29 % 0.0 in /  0 mm
17:22 35.3 °F /  1.8 °C 14.0 °F /  -10 °C 1011.4 in /  34246 hPa SW 4.8 mph /  7.7 km/h 8.0 mph /  12.9 km/h 28 % 0.0 in /  0 mm
17:27 35.2 °F /  1.8 °C 14.5 °F /  -9.7 °C 1011.4 in /  34246 hPa Calm   8.0 mph /  12.9 km/h 29 % 0.0 in /  0 mm
17:32 35.3 °F /  1.8 °C 14.6 °F /  -9.7 °C 1011.4 in /  34246 hPa SE 4.8 mph /  7.7 km/h 11.3 mph /  18.2 km/h 29 % 0.0 in /  0 mm
17:37 35.3 °F /  1.8 °C 14.0 °F /  -10 °C 1011.4 in /  34246 hPa WSW 8.0 mph /  12.9 km/h 11.3 mph /  18.2 km/h 28 % 0.0 in /  0 mm
17:42 35.2 °F /  1.8 °C 13.9 °F /  -10.1 °C 1011.4 in /  34246 hPa SSE 3.2 mph /  5.1 km/h 11.3 mph /  18.2 km/h 28 % 0.0 in /  0 mm
17:47 35.4 °F /  1.9 °C 14.1 °F /  -9.9 °C 1011.4 in /  34246 hPa South 3.2 mph /  5.1 km/h 9.7 mph /  15.6 km/h 28 % 0.0 in /  0 mm
17:52 35.2 °F /  1.8 °C 14.5 °F /  -9.7 °C 1011.1 in /  34235.8 hPa Calm   9.7 mph /  15.6 km/h 29 % 0.0 in /  0 mm
17:57 35.3 °F /  1.8 °C 14.6 °F /  -9.7 °C 1011.1 in /  34235.8 hPa SSW 1.6 mph /  2.6 km/h 9.7 mph /  15.6 km/h 29 % 0.0 in /  0 mm
18:02 35.6 °F /  2 °C 14.3 °F /  -9.8 °C 1011.1 in /  34235.8 hPa SSW 3.2 mph /  5.1 km/h 8.0 mph /  12.9 km/h 28 % 0.0 in /  0 mm
18:12 35.0 °F /  1.7 °C 14.3 °F /  -9.8 °C 1011.1 in /  34235.8 hPa ENE 1.6 mph /  2.6 km/h 8.0 mph /  12.9 km/h 29 % 0.0 in /  0 mm
18:17 34.9 °F /  1.6 °C 14.7 °F /  -9.6 °C 1011.1 in /  34235.8 hPa Calm   11.3 mph /  18.2 km/h 30 % 0.0 in /  0 mm
18:22 35.3 °F /  1.8 °C 14.6 °F /  -9.7 °C 1011.1 in /  34235.8 hPa East 1.6 mph /  2.6 km/h 11.3 mph /  18.2 km/h 29 % 0.0 in /  0 mm
18:32 34.6 °F /  1.4 °C 14.0 °F /  -10 °C 1011.1 in /  34235.8 hPa ENE 6.4 mph /  10.3 km/h 6.4 mph /  10.3 km/h 29 % 0.0 in /  0 mm
18:42 34.7 °F /  1.5 °C 15.1 °F /  -9.4 °C 1011.1 in /  34235.8 hPa Calm   14.5 mph /  23.3 km/h 31 % 0.0 in /  0 mm
18:47 34.7 °F /  1.5 °C 15.1 °F /  -9.4 °C 1011.1 in /  34235.8 hPa ENE 8.0 mph /  12.9 km/h 9.7 mph /  15.6 km/h 31 % 0.0 in /  0 mm
18:52 34.5 °F /  1.4 °C 14.9 °F /  -9.5 °C 1011.1 in /  34235.8 hPa Calm   9.7 mph /  15.6 km/h 31 % 0.0 in /  0 mm
19:02 34.8 °F /  1.6 °C 15.7 °F /  -9.1 °C 1010.7 in /  34222.3 hPa ENE 1.6 mph /  2.6 km/h 9.7 mph /  15.6 km/h 32 % 0.0 in /  0 mm
19:12 34.1 °F /  1.2 °C 14.6 °F /  -9.7 °C 1010.7 in /  34222.3 hPa Calm   6.4 mph /  10.3 km/h 31 % 0.0 in /  0 mm
19:22 33.7 °F /  0.9 °C 15.2 °F /  -9.3 °C 1011.1 in /  34235.8 hPa Calm   6.4 mph /  10.3 km/h 33 % 0.0 in /  0 mm
19:27 33.8 °F /  1 °C 15.7 °F /  -9.1 °C 1011.1 in /  34235.8 hPa Calm   6.4 mph /  10.3 km/h 34 % 0.0 in /  0 mm
19:32 33.9 °F /  1.1 °C 15.4 °F /  -9.2 °C 1011.1 in /  34235.8 hPa Calm   4.8 mph /  7.7 km/h 33 % 0.0 in /  0 mm
19:37 34.0 °F /  1.1 °C 16.4 °F /  -8.7 °C 1011.1 in /  34235.8 hPa Calm   1.6 mph /  2.6 km/h 35 % 0.0 in /  0 mm
19:42 33.9 °F /  1.1 °C 16.3 °F /  -8.7 °C 1011.1 in /  34235.8 hPa Calm   1.6 mph /  2.6 km/h 35 % 0.0 in /  0 mm
19:47 33.7 °F /  0.9 °C 15.7 °F /  -9.1 °C 1011.1 in /  34235.8 hPa Calm     34 % 0.0 in /  0 mm
19:52 33.3 °F /  0.7 °C 15.8 °F /  -9 °C 1011.1 in /  34235.8 hPa Calm   4.8 mph /  7.7 km/h 35 % 0.0 in /  0 mm
20:02 32.8 °F /  0.4 °C 15.8 °F /  -9 °C 1011.1 in /  34235.8 hPa Calm   8.0 mph /  12.9 km/h 36 % 0.0 in /  0 mm
20:12 32.2 °F /  0.1 °C 16.5 °F /  -8.6 °C 1011.1 in /  34235.8 hPa WSW 1.6 mph /  2.6 km/h 6.4 mph /  10.3 km/h 39 % 0.0 in /  0 mm
20:17 31.7 °F /  -0.2 °C 16.8 °F /  -8.4 °C 1010.7 in /  34222.3 hPa Calm   4.8 mph /  7.7 km/h 41 % 0.0 in /  0 mm
20:22 31.1 °F /  -0.5 °C 16.7 °F /  -8.5 °C 1011.1 in /  34235.8 hPa Calm   3.2 mph /  5.1 km/h 42 % 0.0 in /  0 mm
20:32 30.1 °F /  -1.1 °C 17.2 °F /  -8.2 °C 1011.1 in /  34235.8 hPa Calm   3.2 mph /  5.1 km/h 46 % 0.0 in /  0 mm
20:37 29.8 °F /  -1.2 °C 17.3 °F /  -8.2 °C 1011.1 in /  34235.8 hPa WSW 3.2 mph /  5.1 km/h 3.2 mph /  5.1 km/h 47 % 0.0 in /  0 mm
20:42 29.7 °F /  -1.3 °C 16.8 °F /  -8.4 °C 1011.1 in /  34235.8 hPa Calm   1.6 mph /  2.6 km/h 46 % 0.0 in /  0 mm
20:52 29.2 °F /  -1.6 °C 17.1 °F /  -8.3 °C 1011.4 in /  34246 hPa SSW 3.2 mph /  5.1 km/h 4.8 mph /  7.7 km/h 48 % 0.0 in /  0 mm
21:02 29.6 °F /  -1.3 °C 17.1 °F /  -8.3 °C 1011.7 in /  34256.2 hPa SW 8.0 mph /  12.9 km/h 11.3 mph /  18.2 km/h 47 % 0.0 in /  0 mm
21:12 29.8 °F /  -1.2 °C 17.6 °F /  -8 °C 1011.7 in /  34256.2 hPa West 6.4 mph /  10.3 km/h 11.3 mph /  18.2 km/h 48 % 0.0 in /  0 mm
21:17 29.7 °F /  -1.3 °C 18.2 °F /  -7.7 °C 1011.7 in /  34256.2 hPa WSW 4.8 mph /  7.7 km/h 14.5 mph /  23.3 km/h 50 % 0.0 in /  0 mm
21:22 29.6 °F /  -1.3 °C 18.4 °F /  -7.6 °C 1011.7 in /  34256.2 hPa SW 8.0 mph /  12.9 km/h 16.1 mph /  25.9 km/h 51 % 0.0 in /  0 mm
21:27 29.3 °F /  -1.5 °C 18.4 °F /  -7.6 °C 1012.1 in /  34269.7 hPa SW 4.8 mph /  7.7 km/h 16.1 mph /  25.9 km/h 52 % 0.0 in /  0 mm
21:32 29.1 °F /  -1.6 °C 18.5 °F /  -7.5 °C 1012.1 in /  34269.7 hPa SSW 9.7 mph /  15.6 km/h 16.1 mph /  25.9 km/h 53 % 0.0 in /  0 mm
21:37 28.5 °F /  -1.9 °C 18.3 °F /  -7.6 °C 1012.1 in /  34269.7 hPa South 3.2 mph /  5.1 km/h 12.9 mph /  20.8 km/h 54 % 0.0 in /  0 mm
21:42 28.3 °F /  -2.1 °C 18.7 °F /  -7.4 °C 1012.1 in /  34269.7 hPa SW 20.9 mph /  33.6 km/h 20.9 mph /  33.6 km/h 56 % 0.0 in /  0 mm
21:52 28.7 °F /  -1.8 °C 19.1 °F /  -7.2 °C 1012.1 in /  34269.7 hPa SW 6.4 mph /  10.3 km/h 17.7 mph /  28.5 km/h 56 % 0.0 in /  0 mm
21:57 28.8 °F /  -1.8 °C 19.1 °F /  -7.2 °C 1012.1 in /  34269.7 hPa West 8.0 mph /  12.9 km/h 17.7 mph /  28.5 km/h 56 % 0.0 in /  0 mm
22:02 28.7 °F /  -1.8 °C 19.3 °F /  -7.1 °C 1011.7 in /  34256.2 hPa WSW 4.8 mph /  7.7 km/h 17.7 mph /  28.5 km/h 57 % 0.0 in /  0 mm
22:12 28.4 °F /  -2 °C 19.3 °F /  -7.1 °C 1011.7 in /  34256.2 hPa WSW 4.8 mph /  7.7 km/h 17.7 mph /  28.5 km/h 58 % 0.0 in /  0 mm
22:17 28.3 °F /  -2.1 °C 19.5 °F /  -6.9 °C 1012.1 in /  34269.7 hPa WSW 8.0 mph /  12.9 km/h 17.7 mph /  28.5 km/h 59 % 0.0 in /  0 mm
22:22 28.3 °F /  -2.1 °C 19.5 °F /  -6.9 °C 1012.1 in /  34269.7 hPa WSW 4.8 mph /  7.7 km/h 17.7 mph /  28.5 km/h 59 % 0.0 in /  0 mm
22:27 28.3 °F /  -2.1 °C 19.5 °F /  -6.9 °C 1012.1 in /  34269.7 hPa West 11.3 mph /  18.2 km/h 17.7 mph /  28.5 km/h 59 % 0.0 in /  0 mm
22:32 28.2 °F /  -2.1 °C 19.7 °F /  -6.8 °C 1012.1 in /  34269.7 hPa West 9.7 mph /  15.6 km/h 17.7 mph /  28.5 km/h 60 % 0.0 in /  0 mm
22:37 28.1 °F /  -2.2 °C 19.6 °F /  -6.9 °C 1012.1 in /  34269.7 hPa West 9.7 mph /  15.6 km/h 17.7 mph /  28.5 km/h 60 % 0.0 in /  0 mm
22:42 28.0 °F /  -2.2 °C 19.8 °F /  -6.8 °C 1012.1 in /  34269.7 hPa WSW 6.4 mph /  10.3 km/h 17.7 mph /  28.5 km/h 61 % 0.0 in /  0 mm
22:47 27.8 °F /  -2.3 °C 19.6 °F /  -6.9 °C 1012.1 in /  34269.7 hPa SW 4.8 mph /  7.7 km/h 17.7 mph /  28.5 km/h 61 % 0.0 in /  0 mm
22:52 27.7 °F /  -2.4 °C 19.8 °F /  -6.8 °C 1011.7 in /  34256.2 hPa SW 3.2 mph /  5.1 km/h 16.1 mph /  25.9 km/h 62 % 0.0 in /  0 mm
22:57 27.6 °F /  -2.4 °C 19.9 °F /  -6.7 °C 1011.7 in /  34256.2 hPa West 6.4 mph /  10.3 km/h 12.9 mph /  20.8 km/h 63 % 0.0 in /  0 mm
23:02 27.4 °F /  -2.6 °C 20.0 °F /  -6.7 °C 1012.1 in /  34269.7 hPa WSW 6.4 mph /  10.3 km/h 12.9 mph /  20.8 km/h 64 % 0.0 in /  0 mm
23:12 26.8 °F /  -2.9 °C 19.7 °F /  -6.8 °C 1012.4 in /  34279.9 hPa WSW 11.3 mph /  18.2 km/h 12.9 mph /  20.8 km/h 65 % 0.0 in /  0 mm
23:17 26.7 °F /  -2.9 °C 19.3 °F /  -7.1 °C 1012.4 in /  34279.9 hPa WSW 6.4 mph /  10.3 km/h 24.1 mph /  38.8 km/h 64 % 0.0 in /  0 mm
23:22 26.6 °F /  -3 °C 19.0 °F /  -7.2 °C 1012.1 in /  34269.7 hPa WSW 8.0 mph /  12.9 km/h 24.1 mph /  38.8 km/h 63 % 0.0 in /  0 mm
23:32 26.6 °F /  -3 °C 18.7 °F /  -7.4 °C 1012.1 in /  34269.7 hPa WSW 19.3 mph /  31.1 km/h 22.5 mph /  36.2 km/h 62 % 0.0 in /  0 mm
23:42 26.5 °F /  -3.1 °C 18.6 °F /  -7.4 °C 1012.4 in /  34279.9 hPa WSW 3.2 mph /  5.1 km/h 25.7 mph /  41.4 km/h 62 % 0.0 in /  0 mm
23:52 26.4 °F /  -3.1 °C 18.5 °F /  -7.5 °C 1012.4 in /  34279.9 hPa WSW 16.1 mph /  25.9 km/h 24.1 mph /  38.8 km/h 62 % 0.0 in /  0 mm
Meteo18
Compliments of Weather Underground - 4 mb

Script developed by  Jim McMurry - jmcmurry@mwt.net Adapted for the template by  Wim van der Kuil - Leuven-Template.eu

You find our weather info also at:

European Weather Network

Weather Underground

Equipment we use:

Weather-station
Davis Vue

Weather-program
Meteobridge

Weather-server
Raspberry PI 2 B+

Provider
1 and 1

Davis Vue

Meteobridge

Raspberry PI 2 B+

1 and 1